Prescott, Wisconsin
Current Conditions -  °F | °C
As of 6:50 AM on Saturday 25 Oct 2014 (Local Time) from KSGS Reporting Station
Clear Clear  
Wind Chill: 55°   Ceiling: Unl
Heat Index: 55°   Visibility: 10mi
Dew Point: 33°   Wind: 8mph
Humidity: 44%   Direction: 310°NW
Pressure: 29.98"   Gusts: 18mph
Location:  44.75°N, 92.8°W
Report Text: KSGS 251150Z AUTO 31007G16KT 10SM CLR 13/01 A2998 RMK AO2 T01280007
Loading
Personal Weather Stations






























Interactive Weather Map
Tropical Storm Tracking
New forecast layout! Learn more

10-Day Weather Forecast

Advertisements
Track Severe Weather on mobile